createdAt,value
2019-05-18T00:02:18.399Z,20.67
2019-05-18T00:04:46.404Z,24.03
2019-05-18T00:07:14.375Z,20.73
2019-05-18T00:09:42.405Z,21.70
2019-05-18T00:12:10.417Z,22.63
2019-05-18T00:17:47.364Z,21.80
2019-05-18T00:20:15.341Z,23.03
2019-05-18T00:22:43.353Z,21.43
2019-05-18T00:25:11.338Z,23.03
2019-05-18T00:27:39.370Z,23.57
2019-05-18T00:30:07.599Z,23.97
2019-05-18T00:32:35.627Z,23.93
2019-05-18T00:35:03.589Z,24.00
2019-05-18T00:37:31.602Z,23.50
2019-05-18T00:39:59.607Z,25.27
2019-05-18T00:42:27.625Z,24.80
2019-05-18T00:44:55.592Z,25.03
2019-05-18T00:47:23.697Z,26.00
2019-05-18T00:49:51.688Z,25.40
2019-05-18T00:52:19.714Z,26.23
2019-05-18T00:54:47.708Z,25.90
2019-05-18T00:57:15.718Z,25.33
2019-05-18T00:59:43.781Z,28.97
2019-05-18T01:02:11.749Z,28.13
2019-05-18T01:04:39.761Z,29.17
2019-05-18T01:07:07.780Z,27.77
2019-05-18T01:09:35.836Z,28.07
2019-05-18T01:12:03.806Z,29.67
2019-05-18T01:14:31.979Z,29.50
2019-05-18T01:16:59.946Z,27.87
2019-05-18T01:19:27.965Z,29.60
2019-05-18T01:21:55.919Z,29.20
2019-05-18T01:24:23.917Z,28.23
2019-05-18T01:26:51.942Z,27.83
2019-05-18T01:29:19.908Z,28.57
2019-05-18T01:31:47.958Z,29.63
2019-05-18T01:34:15.983Z,29.97
2019-05-18T01:36:44.007Z,30.73
2019-05-18T01:39:11.995Z,31.80
2019-05-18T01:41:39.991Z,31.43
2019-05-18T01:44:07.977Z,32.13
2019-05-18T01:46:35.980Z,30.70
2019-05-18T01:49:03.937Z,32.57
2019-05-18T01:51:31.946Z,30.20
2019-05-18T01:53:59.913Z,33.83
2019-05-18T01:56:27.910Z,33.23
2019-05-18T01:58:55.912Z,31.90
2019-05-18T02:01:23.939Z,33.07
2019-05-18T02:03:51.930Z,33.43
2019-05-18T02:06:19.980Z,35.53
2019-05-18T02:08:47.961Z,33.57
2019-05-18T02:11:15.962Z,34.10
2019-05-18T02:13:43.957Z,36.43
2019-05-18T02:16:11.926Z,38.77
2019-05-18T02:18:39.923Z,33.87
2019-05-18T02:21:07.875Z,35.30
2019-05-18T02:23:35.875Z,37.87
2019-05-18T02:26:03.866Z,37.43
2019-05-18T02:28:31.849Z,37.60
2019-05-18T02:30:59.819Z,38.20
2019-05-18T02:33:27.850Z,35.77
2019-05-18T02:35:55.853Z,38.37
2019-05-18T02:38:23.859Z,39.60
2019-05-18T02:40:51.845Z,39.73
2019-05-18T02:43:19.827Z,36.67
2019-05-18T02:45:47.795Z,35.00
2019-05-18T02:48:15.751Z,35.20
2019-05-18T02:50:43.741Z,40.03
2019-05-18T02:53:11.729Z,33.57
2019-05-18T02:55:39.706Z,37.77
2019-05-18T02:58:07.693Z,41.07
2019-05-18T03:00:35.691Z,34.30
2019-05-18T03:03:03.663Z,33.67
2019-05-18T03:05:31.664Z,35.70
2019-05-18T03:07:59.651Z,35.57
2019-05-18T03:10:27.673Z,39.13
2019-05-18T03:12:56.162Z,36.13
2019-05-18T03:15:24.191Z,37.83
2019-05-18T03:17:52.175Z,35.80
2019-05-18T03:20:20.232Z,38.10
2019-05-18T03:22:48.185Z,35.43
2019-05-18T03:25:16.480Z,39.57
2019-05-18T03:27:44.468Z,34.93
2019-05-18T03:30:12.540Z,36.70
2019-05-18T03:32:40.517Z,33.17
2019-05-18T03:35:08.763Z,36.33
2019-05-18T03:37:36.910Z,35.53
2019-05-18T03:40:04.850Z,41.47
2019-05-18T03:42:32.918Z,40.90
2019-05-18T03:45:01.437Z,42.47
2019-05-18T03:47:29.433Z,42.70
2019-05-18T03:49:57.485Z,41.20
2019-05-18T03:52:25.517Z,39.97
2019-05-18T03:54:53.522Z,44.73
2019-05-18T03:57:21.574Z,43.53
2019-05-18T03:59:49.539Z,40.23
2019-05-18T04:02:17.536Z,42.63
2019-05-18T04:04:45.522Z,41.63
2019-05-18T04:07:13.475Z,40.63
2019-05-18T04:09:41.499Z,40.80
2019-05-18T04:12:09.535Z,38.53
2019-05-18T04:14:37.579Z,35.80
2019-05-18T04:17:05.531Z,38.07
2019-05-18T04:19:45.668Z,37.43
2019-05-18T04:22:03.187Z,36.83
2019-05-18T04:24:31.284Z,33.57
2019-05-18T04:27:00.359Z,32.00
2019-05-18T04:29:29.413Z,30.63
2019-05-18T04:31:57.814Z,29.23
2019-05-18T04:34:25.849Z,29.63
2019-05-18T04:36:53.816Z,30.40
2019-05-18T04:39:21.830Z,29.93
2019-05-18T04:41:49.833Z,26.90
2019-05-18T04:44:17.834Z,28.77
2019-05-18T04:46:45.827Z,29.10
2019-05-18T04:49:13.902Z,28.97
2019-05-18T04:51:41.895Z,28.13
2019-05-18T04:54:10.772Z,26.97
2019-05-18T04:56:42.693Z,28.40
2019-05-18T04:59:08.409Z,27.50
2019-05-18T05:01:36.395Z,28.73
2019-05-18T05:04:04.460Z,28.77
2019-05-18T05:06:32.505Z,28.67
2019-05-18T05:09:00.458Z,29.13
2019-05-18T05:11:28.527Z,27.90
2019-05-18T05:13:56.559Z,28.20
2019-05-18T05:16:24.639Z,26.50
2019-05-18T05:18:52.613Z,29.77
2019-05-18T05:21:20.657Z,26.90
2019-05-18T05:23:48.824Z,27.37
2019-05-18T05:26:16.896Z,26.90
2019-05-18T05:28:44.918Z,26.93
2019-05-18T05:31:12.947Z,27.40
2019-05-18T05:33:40.908Z,26.20
2019-05-18T05:36:08.930Z,26.10
2019-05-18T05:38:36.954Z,26.03
2019-05-18T05:41:04.995Z,25.83
2019-05-18T05:43:32.948Z,26.63
2019-05-18T05:46:00.996Z,24.73
2019-05-18T05:48:29.044Z,26.07
2019-05-18T05:50:57.047Z,26.30
2019-05-18T05:53:25.039Z,24.80
2019-05-18T05:55:53.038Z,26.03
2019-05-18T05:58:21.076Z,25.53
2019-05-18T06:00:49.058Z,25.90
2019-05-18T06:03:17.052Z,25.93
2019-05-18T06:05:45.089Z,25.17
2019-05-18T06:08:13.084Z,23.07
2019-05-18T06:10:41.062Z,24.40
2019-05-18T06:13:09.114Z,22.83
2019-05-18T06:15:37.806Z,22.60
2019-05-18T06:18:05.839Z,23.30
2019-05-18T06:20:48.871Z,23.10
2019-05-18T06:23:04.072Z,22.83
2019-05-18T06:25:34.417Z,22.97
2019-05-18T06:28:01.948Z,21.93
2019-05-18T06:30:30.013Z,21.73
2019-05-18T06:32:58.015Z,21.97
2019-05-18T06:35:26.045Z,21.27
2019-05-18T06:37:54.031Z,22.50
2019-05-18T06:40:22.287Z,21.87
2019-05-18T06:42:50.367Z,21.50
2019-05-18T06:45:18.432Z,21.57
2019-05-18T06:47:48.439Z,21.03
2019-05-18T06:50:16.469Z,20.30
2019-05-18T06:52:44.878Z,19.13
2019-05-18T06:55:12.870Z,18.80
2019-05-18T06:57:40.949Z,19.03
2019-05-18T07:00:09.372Z,19.47
2019-05-18T07:02:37.355Z,17.47
2019-05-18T07:05:05.670Z,17.20
2019-05-18T07:07:34.021Z,14.77
2019-05-18T07:10:02.080Z,13.10
2019-05-18T07:12:30.332Z,13.60
2019-05-18T07:15:00.382Z,14.47
2019-05-18T07:17:29.296Z,13.10
2019-05-18T07:19:57.568Z,13.33
2019-05-18T07:22:25.626Z,15.73
2019-05-18T07:24:54.003Z,13.07
2019-05-18T07:27:25.423Z,12.93
2019-05-18T07:29:56.132Z,14.47
2019-05-18T07:32:26.511Z,13.17
2019-05-18T07:34:54.875Z,13.70
2019-05-18T07:37:22.938Z,13.90
2019-05-18T07:39:51.003Z,14.40
2019-05-18T07:42:19.053Z,14.00
2019-05-18T07:44:47.142Z,13.77
2019-05-18T07:47:15.126Z,12.70
2019-05-18T07:49:43.245Z,12.47
2019-05-18T07:52:11.251Z,12.07
2019-05-18T07:54:39.380Z,12.95
2019-05-18T07:57:07.408Z,11.07
2019-05-18T07:59:35.490Z,11.70
2019-05-18T08:02:05.231Z,11.30
2019-05-18T08:04:33.240Z,11.17
2019-05-18T08:07:01.290Z,11.93
2019-05-18T08:09:29.328Z,12.43
2019-05-18T08:11:57.301Z,10.63
2019-05-18T08:14:25.307Z,12.40
2019-05-18T08:16:53.393Z,13.85
2019-05-18T08:19:21.506Z,11.70
2019-05-18T08:21:53.073Z,10.20
2019-05-18T08:24:19.337Z,10.23
2019-05-18T08:26:48.802Z,10.77
2019-05-18T08:29:16.813Z,9.83
2019-05-18T08:31:44.860Z,11.17
2019-05-18T08:34:13.055Z,10.13
2019-05-18T08:36:41.114Z,11.27
2019-05-18T08:39:09.125Z,10.17
2019-05-18T08:41:37.277Z,10.57
2019-05-18T08:44:05.561Z,11.25
2019-05-18T08:46:33.892Z,11.65
2019-05-18T08:49:01.923Z,11.60
2019-05-18T08:51:29.948Z,11.43
2019-05-18T08:53:58.194Z,10.87
2019-05-18T08:56:26.158Z,9.28
2019-05-18T08:58:54.187Z,9.30
2019-05-18T09:01:22.269Z,9.60
2019-05-18T09:03:50.288Z,10.30
2019-05-18T09:06:18.281Z,9.25
2019-05-18T09:08:46.282Z,9.50
2019-05-18T09:11:14.431Z,8.60
2019-05-18T09:13:42.398Z,8.00
2019-05-18T09:16:10.374Z,8.48
2019-05-18T09:18:38.487Z,8.83
2019-05-18T09:21:06.654Z,7.72
2019-05-18T09:23:34.880Z,8.10
2019-05-18T09:26:03.052Z,6.63
2019-05-18T09:28:31.076Z,6.47
2019-05-18T09:30:59.050Z,7.12
2019-05-18T09:33:27.034Z,7.13
2019-05-18T09:35:55.194Z,6.25
2019-05-18T09:38:23.229Z,8.35
2019-05-18T09:40:51.236Z,5.78
2019-05-18T09:43:19.643Z,6.30
2019-05-18T09:45:47.691Z,6.92
2019-05-18T09:48:15.820Z,8.23
2019-05-18T09:50:44.033Z,5.87
2019-05-18T09:53:12.053Z,5.78
2019-05-18T09:55:40.075Z,6.10
2019-05-18T09:58:08.188Z,6.10
2019-05-18T10:00:38.947Z,6.80
2019-05-18T10:03:06.023Z,5.97
2019-05-18T10:05:33.987Z,10.23
2019-05-18T10:08:02.035Z,6.10
2019-05-18T10:10:30.030Z,6.67
2019-05-18T10:12:58.095Z,6.63
2019-05-18T10:15:26.044Z,7.43
2019-05-18T10:17:54.056Z,6.30
2019-05-18T10:20:22.011Z,6.87
2019-05-18T10:22:55.850Z,6.50
2019-05-18T10:25:19.688Z,6.33
2019-05-18T10:27:47.763Z,6.50
2019-05-18T10:30:15.746Z,5.93
2019-05-18T10:32:43.798Z,6.30
2019-05-18T10:35:11.757Z,5.97
2019-05-18T10:37:39.760Z,5.83
2019-05-18T10:40:07.808Z,5.97
2019-05-18T10:42:35.804Z,7.50
2019-05-18T10:45:03.788Z,5.70
2019-05-18T10:47:31.802Z,5.33
2019-05-18T10:49:59.787Z,5.73
2019-05-18T10:52:27.779Z,5.80
2019-05-18T10:54:55.808Z,4.90
2019-05-18T10:57:23.752Z,5.67
2019-05-18T10:59:51.739Z,5.83
2019-05-18T11:02:19.806Z,5.07
2019-05-18T11:04:47.763Z,4.80
2019-05-18T11:07:15.738Z,5.03
2019-05-18T11:09:43.757Z,4.50
2019-05-18T11:12:11.773Z,4.77
2019-05-18T11:14:39.931Z,7.00
2019-05-18T11:17:08.462Z,4.77
2019-05-18T11:19:36.532Z,4.67
2019-05-18T11:22:04.547Z,4.47
2019-05-18T11:24:32.561Z,4.62
2019-05-18T11:27:00.567Z,4.40
2019-05-18T11:29:28.619Z,4.40
2019-05-18T11:31:56.642Z,5.07
2019-05-18T11:34:24.626Z,6.13
2019-05-18T11:36:52.624Z,5.17
2019-05-18T11:39:20.637Z,4.00
2019-05-18T11:41:48.656Z,6.40
2019-05-18T11:44:16.601Z,4.30
2019-05-18T11:46:44.599Z,5.27
2019-05-18T11:49:12.589Z,4.40
2019-05-18T11:51:40.595Z,8.43
2019-05-18T11:54:08.582Z,4.90
2019-05-18T11:56:36.611Z,4.83
2019-05-18T11:59:04.625Z,5.15
2019-05-18T12:01:32.593Z,4.77
2019-05-18T12:04:00.614Z,5.50
2019-05-18T12:06:28.637Z,4.47
2019-05-18T12:08:58.584Z,6.97
2019-05-18T12:11:26.189Z,4.87
2019-05-18T12:13:54.187Z,4.60
2019-05-18T12:16:22.171Z,4.45
2019-05-18T12:18:50.140Z,4.50
2019-05-18T12:21:18.146Z,6.40
2019-05-18T12:23:46.245Z,5.13
2019-05-18T12:26:14.214Z,5.37
2019-05-18T12:28:42.215Z,4.87
2019-05-18T12:31:10.161Z,5.10
2019-05-18T12:33:38.179Z,6.10
2019-05-18T12:36:06.171Z,4.70
2019-05-18T12:38:34.176Z,7.57
2019-05-18T12:41:02.296Z,4.70
2019-05-18T12:43:30.335Z,4.73
2019-05-18T12:45:58.333Z,5.25
2019-05-18T12:48:26.305Z,5.33
2019-05-18T12:50:54.292Z,5.70
2019-05-18T12:53:22.292Z,4.87
2019-05-18T12:55:50.289Z,6.03
2019-05-18T12:58:18.329Z,4.97
2019-05-18T13:00:46.362Z,4.60
2019-05-18T13:03:14.346Z,5.17
2019-05-18T13:05:42.422Z,5.15
2019-05-18T13:08:10.389Z,5.28
2019-05-18T13:10:38.373Z,5.08
2019-05-18T13:13:06.339Z,5.43
2019-05-18T13:15:34.375Z,5.17
2019-05-18T13:18:02.364Z,4.25
2019-05-18T13:20:30.315Z,4.20
2019-05-18T13:22:58.724Z,4.07
2019-05-18T13:25:26.725Z,4.07
2019-05-18T13:27:54.722Z,4.47
2019-05-18T13:30:22.770Z,4.50
2019-05-18T13:32:50.808Z,4.97
2019-05-18T13:35:18.789Z,4.20
2019-05-18T13:37:46.829Z,4.33
2019-05-18T13:40:14.846Z,3.70
2019-05-18T13:42:42.814Z,5.00
2019-05-18T13:45:12.164Z,3.77
2019-05-18T13:47:40.194Z,4.00
2019-05-18T13:50:08.958Z,3.92
2019-05-18T13:52:36.944Z,3.43
2019-05-18T13:55:05.294Z,2.90
2019-05-18T13:57:33.393Z,3.35
2019-05-18T14:00:01.367Z,4.53
2019-05-18T14:02:29.350Z,3.97
2019-05-18T14:04:57.431Z,3.65
2019-05-18T14:07:25.453Z,2.90
2019-05-18T14:09:53.422Z,2.93
2019-05-18T14:12:21.447Z,3.07
2019-05-18T14:14:49.436Z,3.60
2019-05-18T14:17:17.427Z,3.37
2019-05-18T14:19:45.407Z,3.72
2019-05-18T14:22:13.419Z,3.85
2019-05-18T14:24:41.395Z,3.52
2019-05-18T14:27:09.413Z,3.87
2019-05-18T14:29:37.348Z,4.07
2019-05-18T14:32:05.347Z,2.70
2019-05-18T14:34:33.324Z,3.35
2019-05-18T14:37:01.377Z,2.90
2019-05-18T14:39:29.335Z,3.57
2019-05-18T14:41:57.408Z,3.63
2019-05-18T14:44:25.385Z,3.08
2019-05-18T14:46:53.421Z,2.93
2019-05-18T14:49:21.439Z,2.98
2019-05-18T14:51:49.428Z,2.67
2019-05-18T14:54:17.781Z,2.83
2019-05-18T14:56:45.808Z,3.20
2019-05-18T14:59:13.793Z,3.17
2019-05-18T15:01:41.789Z,3.00
2019-05-18T15:04:09.791Z,2.72
2019-05-18T15:06:37.779Z,3.40
2019-05-18T15:09:06.034Z,4.67
2019-05-18T15:11:34.108Z,4.03
2019-05-18T15:14:02.566Z,5.90
2019-05-18T15:16:30.533Z,2.60
2019-05-18T15:18:58.510Z,3.00
2019-05-18T15:21:26.512Z,3.65
2019-05-18T15:23:54.500Z,3.00
2019-05-18T15:26:22.487Z,2.93
2019-05-18T15:28:50.476Z,3.40
2019-05-18T15:31:18.463Z,2.80
2019-05-18T15:33:46.473Z,4.67
2019-05-18T15:36:15.311Z,5.17
2019-05-18T15:38:43.329Z,2.80
2019-05-18T15:41:11.328Z,3.03
2019-05-18T15:43:39.304Z,3.37
2019-05-18T15:46:07.311Z,3.60
2019-05-18T15:48:35.322Z,2.70
2019-05-18T15:51:03.363Z,3.00
2019-05-18T15:53:31.405Z,3.02
2019-05-18T15:56:05.917Z,2.97
2019-05-18T15:58:29.052Z,4.30
2019-05-18T16:00:57.043Z,2.70
2019-05-18T16:03:25.040Z,5.33
2019-05-18T16:05:53.025Z,3.33
2019-05-18T16:08:21.019Z,3.00
2019-05-18T16:10:48.999Z,4.27
2019-05-18T16:13:16.967Z,4.03
2019-05-18T16:15:44.997Z,3.93
2019-05-18T16:18:13.065Z,5.30
2019-05-18T16:20:41.068Z,2.73
2019-05-18T16:23:09.071Z,2.57
2019-05-18T16:25:37.035Z,3.53
2019-05-18T16:28:05.022Z,3.30
2019-05-18T16:30:33.000Z,3.07
2019-05-18T16:33:01.025Z,3.20
2019-05-18T16:35:28.974Z,7.57
2019-05-18T16:37:56.936Z,2.63
2019-05-18T16:40:24.921Z,4.43
2019-05-18T16:42:52.965Z,4.70
2019-05-18T16:45:20.925Z,3.83
2019-05-18T16:47:48.925Z,3.13
2019-05-18T16:50:17.857Z,3.33
2019-05-18T16:52:45.855Z,3.73
2019-05-18T16:55:13.832Z,2.90
2019-05-18T16:57:41.796Z,4.67
2019-05-18T17:00:10.171Z,5.57
2019-05-18T17:02:38.132Z,4.13
2019-05-18T17:05:06.390Z,2.83
2019-05-18T17:07:34.362Z,5.00
2019-05-18T17:10:02.429Z,4.13
2019-05-18T17:12:30.382Z,3.97
2019-05-18T17:14:58.389Z,3.03
2019-05-18T17:17:26.356Z,2.90
2019-05-18T17:19:54.349Z,3.17
2019-05-18T17:22:22.332Z,3.17
2019-05-18T17:24:50.324Z,5.87
2019-05-18T17:27:18.295Z,3.63
2019-05-18T17:29:46.267Z,3.90
2019-05-18T17:32:14.260Z,3.40
2019-05-18T17:34:42.255Z,3.33
2019-05-18T17:37:10.247Z,3.03
2019-05-18T17:39:38.263Z,3.20
2019-05-18T17:42:06.317Z,4.80
2019-05-18T17:44:34.297Z,3.30
2019-05-18T17:47:02.301Z,2.90
2019-05-18T17:49:30.276Z,3.30
2019-05-18T17:51:58.268Z,3.70
2019-05-18T17:54:26.251Z,4.47
2019-05-18T17:57:07.530Z,4.60
2019-05-18T17:59:23.965Z,3.70
2019-05-18T18:01:51.988Z,3.57
2019-05-18T18:04:19.990Z,4.53
2019-05-18T18:06:47.970Z,4.00
2019-05-18T18:09:15.996Z,5.30
2019-05-18T18:11:44.056Z,4.10
2019-05-18T18:14:12.050Z,5.70
2019-05-18T18:16:40.083Z,3.90
2019-05-18T18:19:08.126Z,4.70
2019-05-18T18:21:36.101Z,3.97
2019-05-18T18:24:04.100Z,3.77
2019-05-18T18:26:32.122Z,6.20
2019-05-18T18:29:00.139Z,3.83
2019-05-18T18:31:28.148Z,3.60
2019-05-18T18:33:56.163Z,5.23
2019-05-18T18:36:24.222Z,3.73
2019-05-18T18:38:52.317Z,4.63
2019-05-18T18:41:20.268Z,3.80
2019-05-18T18:43:48.260Z,3.93
2019-05-18T18:46:16.280Z,4.33
2019-05-18T18:48:44.290Z,4.13
2019-05-18T18:51:12.286Z,4.77
2019-05-18T18:53:40.312Z,3.80
2019-05-18T18:56:08.326Z,4.97
2019-05-18T18:58:36.274Z,5.73
2019-05-18T19:01:04.272Z,5.73
2019-05-18T19:03:32.297Z,7.27
2019-05-18T19:06:00.340Z,6.13
2019-05-18T19:08:28.386Z,10.33
2019-05-18T19:10:56.430Z,7.53
2019-05-18T19:13:24.394Z,7.23
2019-05-18T19:15:52.413Z,8.20
2019-05-18T19:18:20.398Z,14.00
2019-05-18T19:20:48.440Z,38.57
2019-05-18T19:23:16.470Z,44.73
2019-05-18T19:25:44.570Z,31.97
2019-05-18T19:28:12.591Z,19.70
2019-05-18T19:30:40.638Z,28.53
2019-05-18T19:33:08.635Z,31.93
2019-05-18T19:35:36.680Z,28.20
2019-05-18T19:38:04.701Z,22.43
2019-05-18T19:40:32.756Z,22.03
2019-05-18T19:43:00.793Z,20.73
2019-05-18T19:45:28.843Z,25.30
2019-05-18T19:47:56.838Z,21.40
2019-05-18T19:50:24.842Z,32.20
2019-05-18T19:52:52.849Z,30.73
2019-05-18T19:55:20.918Z,34.90
2019-05-18T19:57:48.919Z,53.23
2019-05-18T20:00:16.906Z,44.93
2019-05-18T20:02:44.938Z,47.63
2019-05-18T20:05:12.950Z,47.30
2019-05-18T20:07:40.942Z,42.93
2019-05-18T20:10:09.022Z,38.80
2019-05-18T20:12:37.047Z,38.03
2019-05-18T20:15:09.000Z,34.53
2019-05-18T20:17:34.712Z,32.63
2019-05-18T20:20:02.719Z,38.03
2019-05-18T20:22:30.718Z,30.40
2019-05-18T20:24:58.699Z,30.57
2019-05-18T20:27:26.669Z,31.87
2019-05-18T20:29:54.768Z,26.43
2019-05-18T20:32:22.902Z,27.80
2019-05-18T20:34:50.894Z,23.30
2019-05-18T20:37:18.877Z,34.57
2019-05-18T20:39:46.901Z,24.27
2019-05-18T20:42:14.922Z,22.73
2019-05-18T20:44:42.922Z,21.57
2019-05-18T20:47:11.104Z,22.77
2019-05-18T20:49:39.054Z,22.43
2019-05-18T20:52:07.173Z,24.30
2019-05-18T20:54:35.147Z,25.50
2019-05-18T20:57:03.160Z,24.73
2019-05-18T20:59:31.099Z,28.63
2019-05-18T21:01:59.137Z,29.47
2019-05-18T21:04:27.123Z,31.63
2019-05-18T21:06:55.105Z,33.47
2019-05-18T21:09:23.077Z,34.10
2019-05-18T21:11:51.159Z,31.83
2019-05-18T21:14:20.022Z,30.57
2019-05-18T21:16:48.306Z,33.73
2019-05-18T21:19:16.813Z,27.17
2019-05-18T21:21:44.958Z,28.47
2019-05-18T21:24:12.983Z,32.00
2019-05-18T21:26:41.627Z,30.07
2019-05-18T21:29:10.621Z,34.70
2019-05-18T21:31:39.509Z,32.23
2019-05-18T21:34:08.203Z,31.43
2019-05-18T21:36:37.048Z,32.97
2019-05-18T21:39:06.791Z,30.27
2019-05-18T21:41:35.288Z,30.07
2019-05-18T21:44:03.586Z,30.27
2019-05-18T21:46:32.511Z,32.40
2019-05-18T21:49:00.621Z,28.87
2019-05-18T21:51:28.993Z,28.40
2019-05-18T21:53:57.686Z,30.17
2019-05-18T21:56:26.666Z,27.73
2019-05-18T21:59:09.065Z,28.53
2019-05-18T22:01:25.489Z,27.67
2019-05-18T22:03:53.487Z,26.07
2019-05-18T22:06:21.476Z,29.27
2019-05-18T22:08:49.489Z,26.60
2019-05-18T22:11:17.455Z,32.07
2019-05-18T22:13:45.463Z,31.07
2019-05-18T22:16:13.479Z,28.93
2019-05-18T22:18:41.503Z,27.80
2019-05-18T22:21:09.563Z,28.93
2019-05-18T22:23:37.644Z,27.37
2019-05-18T22:26:05.639Z,24.13
2019-05-18T22:28:33.644Z,25.23
2019-05-18T22:31:01.623Z,24.57
2019-05-18T22:33:29.644Z,28.33
2019-05-18T22:35:57.620Z,26.80
2019-05-18T22:38:25.623Z,25.10
2019-05-18T22:40:53.593Z,25.23
2019-05-18T22:43:21.573Z,27.10
2019-05-18T22:45:49.580Z,25.97
2019-05-18T22:48:17.558Z,26.20
2019-05-18T22:50:45.616Z,23.77
2019-05-18T22:53:13.626Z,26.33
2019-05-18T22:55:41.650Z,26.23
2019-05-18T22:58:09.670Z,25.43
2019-05-18T23:00:37.647Z,27.03
2019-05-18T23:03:05.669Z,27.73
2019-05-18T23:05:33.668Z,28.70
2019-05-18T23:08:01.764Z,27.73
2019-05-18T23:10:30.868Z,26.97
2019-05-18T23:12:58.922Z,27.80
2019-05-18T23:15:26.892Z,25.53
2019-05-18T23:17:54.927Z,26.60
2019-05-18T23:20:22.942Z,25.97
2019-05-18T23:22:50.945Z,24.90
2019-05-18T23:25:18.940Z,25.93
2019-05-18T23:27:46.968Z,25.33
2019-05-18T23:30:14.943Z,27.10
2019-05-18T23:32:42.973Z,27.57
2019-05-18T23:35:11.004Z,26.70
2019-05-18T23:37:38.959Z,28.70
2019-05-18T23:40:07.513Z,26.77
2019-05-18T23:42:35.526Z,26.57
2019-05-18T23:45:03.542Z,29.43
2019-05-18T23:47:31.541Z,25.03
2019-05-18T23:49:59.523Z,27.53
2019-05-18T23:52:27.517Z,26.03
2019-05-18T23:54:55.507Z,26.90
2019-05-18T23:57:23.532Z,28.60
2019-05-18T23:59:51.534Z,25.00
